createdAt,value
2023-05-09T00:00:32.865Z,97283.38
2023-05-09T00:02:59.411Z,97286.66
2023-05-09T00:05:26.022Z,97279.94
2023-05-09T00:07:52.501Z,97280.44
2023-05-09T00:10:19.068Z,97269.84
2023-05-09T00:12:45.513Z,97276.25
2023-05-09T00:15:13.105Z,97284.81
2023-05-09T00:17:40.086Z,97272.13
2023-05-09T00:20:11.597Z,97273.63
2023-05-09T00:22:41.712Z,97264.34
2023-05-09T00:25:10.014Z,97267.78
2023-05-09T00:27:37.106Z,97264.06
2023-05-09T00:30:04.790Z,97266.66
2023-05-09T00:32:33.061Z,97268.25
2023-05-09T00:34:59.497Z,97258.69
2023-05-09T00:37:26.315Z,97263.38
2023-05-09T00:39:52.994Z,97258.88
2023-05-09T00:42:19.477Z,97265.50
2023-05-09T00:44:45.994Z,97260.19
2023-05-09T00:47:12.435Z,97256.50
2023-05-09T00:49:38.961Z,97253.91
2023-05-09T00:52:05.635Z,97247.53
2023-05-09T00:54:32.298Z,97244.09
2023-05-09T00:56:58.713Z,97241.69
2023-05-09T00:59:25.312Z,97233.22
2023-05-09T01:01:51.758Z,97232.19
2023-05-09T01:04:18.503Z,97235.97
2023-05-09T01:07:25.505Z,97239.13
2023-05-09T01:10:10.801Z,97238.34
2023-05-09T01:12:49.728Z,97237.00
2023-05-09T01:15:22.136Z,97228.53
2023-05-09T01:18:11.725Z,97239.00
2023-05-09T01:20:39.887Z,97235.56
2023-05-09T01:23:36.493Z,97226.59
2023-05-09T01:26:09.562Z,97237.00
2023-05-09T01:29:17.896Z,97224.53
2023-05-09T01:31:46.900Z,97228.50
2023-05-09T01:34:16.269Z,97225.06
2023-05-09T01:36:44.022Z,97223.47
2023-05-09T01:39:13.955Z,97211.25
2023-05-09T01:41:40.525Z,97210.19
2023-05-09T01:44:10.949Z,97214.41
2023-05-09T01:46:37.717Z,97211.69
2023-05-09T01:49:07.853Z,97212.25
2023-05-09T01:51:36.762Z,97213.06
2023-05-09T01:54:04.502Z,97205.38
2023-05-09T01:56:32.324Z,97216.28
2023-05-09T01:59:00.310Z,97216.31
2023-05-09T02:01:27.307Z,97211.56
2023-05-09T02:03:54.355Z,97216.06
2023-05-09T02:06:23.079Z,97219.78
2023-05-09T02:08:50.081Z,97218.75
2023-05-09T02:11:16.557Z,97220.56
2023-05-09T02:13:43.040Z,97215.50
2023-05-09T02:16:10.326Z,97219.78
2023-05-09T02:18:37.532Z,97220.78
2023-05-09T02:21:04.121Z,97221.16
2023-05-09T02:23:31.085Z,97214.28
2023-05-09T02:25:57.634Z,97216.50
2023-05-09T02:28:27.120Z,97216.50
2023-05-09T02:30:57.065Z,97205.91
2023-05-09T02:33:24.222Z,97210.63
2023-05-09T02:35:51.198Z,97200.81
2023-05-09T02:38:19.173Z,97202.19
2023-05-09T02:40:47.523Z,97203.28
2023-05-09T02:43:15.073Z,97207.00
2023-05-09T02:45:42.086Z,97199.56
2023-05-09T02:48:09.364Z,97200.66
2023-05-09T02:50:38.291Z,97201.59
2023-05-09T02:53:05.530Z,97194.13
2023-05-09T02:55:32.011Z,97182.38
2023-05-09T02:58:11.929Z,97178.72
2023-05-09T03:00:40.345Z,97178.72
2023-05-09T03:03:06.876Z,97175.06
2023-05-09T03:05:33.469Z,97176.47
2023-05-09T03:07:59.843Z,97176.72
2023-05-09T03:10:26.258Z,97177.81
2023-05-09T03:12:52.794Z,97181.47
2023-05-09T03:15:19.944Z,97178.50
2023-05-09T03:17:46.667Z,97173.97
2023-05-09T03:20:13.426Z,97175.34
2023-05-09T03:22:39.880Z,97177.50
2023-05-09T03:25:06.482Z,97176.09
2023-05-09T03:27:33.094Z,97177.31
2023-05-09T03:29:59.554Z,97169.03
2023-05-09T03:32:27.164Z,97168.03
2023-05-09T03:34:54.862Z,97160.53
2023-05-09T03:37:21.478Z,97160.53
2023-05-09T03:39:48.041Z,97161.69
2023-05-09T03:42:14.440Z,97151.00
2023-05-09T03:44:40.911Z,97155.28
2023-05-09T03:47:07.510Z,97146.78
2023-05-09T03:49:33.966Z,97147.28
2023-05-09T03:52:00.457Z,97152.00
2023-05-09T03:54:27.002Z,97155.28
2023-05-09T03:56:53.375Z,97156.59
2023-05-09T03:59:20.732Z,97150.50
2023-05-09T04:01:47.380Z,97145.69
2023-05-09T04:04:13.879Z,97151.75
2023-05-09T04:06:40.588Z,97148.28
2023-05-09T04:09:07.159Z,97146.44
2023-05-09T04:11:33.687Z,97147.28
2023-05-09T04:14:00.268Z,97154.44
2023-05-09T04:16:26.727Z,97157.69
2023-05-09T04:18:53.191Z,97158.75
2023-05-09T04:21:19.619Z,97155.28
2023-05-09T04:23:46.315Z,97149.75
2023-05-09T04:26:13.952Z,97155.69
2023-05-09T04:28:40.354Z,97167.16
2023-05-09T04:31:07.057Z,97155.97
2023-05-09T04:33:33.740Z,97158.09
2023-05-09T04:36:00.135Z,97156.47
2023-05-09T04:38:26.667Z,97158.63
2023-05-09T04:40:53.264Z,97159.63
2023-05-09T04:43:20.051Z,97159.03
2023-05-09T04:45:46.596Z,97149.56
2023-05-09T04:48:13.145Z,97149.63
2023-05-09T04:50:41.487Z,97149.72
2023-05-09T04:53:08.333Z,97149.75
2023-05-09T04:55:35.622Z,97148.72
2023-05-09T04:58:02.205Z,97149.75
2023-05-09T05:00:28.656Z,97150.59
2023-05-09T05:02:55.284Z,97152.72
2023-05-09T05:05:25.158Z,97148.78
2023-05-09T05:07:53.386Z,97151.94
2023-05-09T05:10:19.846Z,97151.34
2023-05-09T05:12:46.406Z,97145.31
2023-05-09T05:15:13.092Z,97146.38
2023-05-09T05:17:39.780Z,97141.81
2023-05-09T05:20:06.938Z,97140.63
2023-05-09T05:22:33.426Z,97144.94
2023-05-09T05:24:59.834Z,97147.13
2023-05-09T05:27:26.286Z,97139.72
2023-05-09T05:29:52.688Z,97131.53
2023-05-09T05:32:19.104Z,97137.69
2023-05-09T05:34:45.679Z,97134.50
2023-05-09T05:37:12.140Z,97148.34
2023-05-09T05:39:38.562Z,97146.50
2023-05-09T05:42:05.147Z,97150.53
2023-05-09T05:44:31.619Z,97142.59
2023-05-09T05:46:58.287Z,97140.72
2023-05-09T05:49:25.152Z,97144.16
2023-05-09T05:51:51.878Z,97135.41
2023-05-09T05:54:18.442Z,97137.56
2023-05-09T05:56:45.160Z,97146.34
2023-05-09T05:59:13.326Z,97139.94
2023-05-09T06:01:43.960Z,97141.53
2023-05-09T06:04:10.760Z,97136.97
2023-05-09T06:06:37.268Z,97136.19
2023-05-09T06:09:03.848Z,97127.13
2023-05-09T06:11:30.394Z,97122.38
2023-05-09T06:13:56.915Z,97129.78
2023-05-09T06:16:23.590Z,97123.41
2023-05-09T06:18:50.388Z,97117.00
2023-05-09T06:21:17.127Z,97114.25
2023-05-09T06:24:01.422Z,97113.03
2023-05-09T06:26:32.090Z,97110.78
2023-05-09T06:28:58.519Z,97106.81
2023-05-09T06:31:25.840Z,97108.19
2023-05-09T06:33:52.521Z,97114.75
2023-05-09T06:36:19.055Z,97115.81
2023-05-09T06:38:45.526Z,97124.22
2023-05-09T06:41:12.010Z,97116.81
2023-05-09T06:43:38.454Z,97114.31
2023-05-09T06:46:04.984Z,97110.06
2023-05-09T06:48:31.605Z,97100.34
2023-05-09T06:50:58.155Z,97098.56
2023-05-09T06:53:24.589Z,97103.88
2023-05-09T06:55:51.082Z,97109.00
2023-05-09T06:58:17.503Z,97099.06
2023-05-09T07:00:44.080Z,97101.72
2023-05-09T07:03:11.663Z,97089.25
2023-05-09T07:05:38.581Z,97093.50
2023-05-09T07:08:05.297Z,97084.91
2023-05-09T07:10:32.132Z,97087.88
2023-05-09T07:12:58.762Z,97079.56
2023-05-09T07:15:39.725Z,97069.66
2023-05-09T07:18:07.835Z,97068.09
2023-05-09T07:20:34.346Z,97071.09
2023-05-09T07:23:01.047Z,97068.84
2023-05-09T07:25:27.533Z,97069.03
2023-05-09T07:27:53.938Z,97062.69
2023-05-09T07:30:20.368Z,97053.34
2023-05-09T07:32:47.427Z,97062.81
2023-05-09T07:35:14.081Z,97050.56
2023-05-09T07:37:40.853Z,97039.63
2023-05-09T07:40:08.041Z,97032.72
2023-05-09T07:42:34.593Z,97028.75
2023-05-09T07:45:01.138Z,97033.00
2023-05-09T07:47:27.676Z,97046.44
2023-05-09T07:49:54.341Z,97032.28
2023-05-09T07:52:21.021Z,97037.09
2023-05-09T07:54:47.464Z,97031.41
2023-05-09T07:57:13.850Z,97028.50
2023-05-09T07:59:40.593Z,97023.00
2023-05-09T08:02:06.930Z,97021.06
2023-05-09T08:04:33.431Z,97016.97
2023-05-09T08:07:00.228Z,97005.41
2023-05-09T08:09:26.878Z,97005.19
2023-05-09T08:11:53.456Z,97007.09
2023-05-09T08:14:19.974Z,97002.25
2023-05-09T08:16:46.386Z,96994.53
2023-05-09T08:19:13.449Z,96997.66
2023-05-09T08:21:39.971Z,96984.84
2023-05-09T08:24:08.075Z,96984.69
2023-05-09T08:26:35.239Z,96977.91
2023-05-09T08:29:01.679Z,96972.50
2023-05-09T08:31:28.201Z,96972.28
2023-05-09T08:33:54.640Z,96975.63
2023-05-09T08:36:21.141Z,96959.50
2023-05-09T08:38:47.807Z,96956.81
2023-05-09T08:41:14.547Z,96964.25
2023-05-09T08:43:41.546Z,96970.25
2023-05-09T08:46:10.522Z,96969.19
2023-05-09T08:48:37.580Z,96960.94
2023-05-09T08:51:05.746Z,96963.22
2023-05-09T08:53:33.157Z,96953.88
2023-05-09T08:56:01.565Z,96951.34
2023-05-09T08:58:28.808Z,96952.13
2023-05-09T09:00:55.804Z,96944.38
2023-05-09T09:03:23.353Z,96952.00
2023-05-09T09:05:51.633Z,96944.75
2023-05-09T09:08:18.717Z,96943.44
2023-05-09T09:10:48.438Z,96932.09
2023-05-09T09:13:16.787Z,96938.94
2023-05-09T09:15:46.261Z,96933.72
2023-05-09T09:18:21.256Z,96933.41
2023-05-09T09:20:59.580Z,96934.34
2023-05-09T09:23:28.610Z,96924.31
2023-05-09T09:26:02.966Z,96922.75
2023-05-09T09:28:29.809Z,96926.84
2023-05-09T09:30:56.537Z,96924.78
2023-05-09T09:33:24.764Z,96917.78
2023-05-09T09:35:53.395Z,96909.09
2023-05-09T09:38:24.477Z,96912.34
2023-05-09T09:40:58.616Z,96915.22
2023-05-09T09:43:29.343Z,96906.84
2023-05-09T09:45:57.069Z,96901.44
2023-05-09T09:48:30.940Z,96895.38
2023-05-09T09:50:57.440Z,96896.72
2023-05-09T09:53:27.123Z,96894.84
2023-05-09T09:55:53.826Z,96885.59
2023-05-09T09:58:25.153Z,96877.03
2023-05-09T10:01:07.794Z,96869.13
2023-05-09T10:03:41.248Z,96864.81
2023-05-09T10:06:12.060Z,96862.78
2023-05-09T10:08:39.418Z,96858.16
2023-05-09T10:11:06.233Z,96857.16
2023-05-09T10:13:35.859Z,96848.00
2023-05-09T10:16:04.489Z,96846.06
2023-05-09T10:18:31.952Z,96848.84
2023-05-09T10:21:04.080Z,96844.38
2023-05-09T10:23:32.767Z,96837.97
2023-05-09T10:26:16.484Z,96830.09
2023-05-09T10:28:46.008Z,96825.19
2023-05-09T10:31:16.474Z,96823.94
2023-05-09T10:33:50.961Z,96814.97
2023-05-09T10:36:20.619Z,96817.88
2023-05-09T10:38:49.014Z,96817.22
2023-05-09T10:41:18.701Z,96814.47
2023-05-09T10:43:45.887Z,96811.06
2023-05-09T10:46:13.654Z,96791.88
2023-05-09T10:48:42.199Z,96798.13
2023-05-09T10:51:09.324Z,96795.41
2023-05-09T10:53:46.937Z,96785.34
2023-05-09T10:56:33.392Z,96782.28
2023-05-09T10:59:00.662Z,96774.72
2023-05-09T11:01:34.813Z,96772.28
2023-05-09T11:04:08.516Z,96771.78
2023-05-09T11:06:41.718Z,96765.78
2023-05-09T11:09:33.230Z,96758.31
2023-05-09T11:12:06.376Z,96747.97
2023-05-09T11:14:45.361Z,96753.41
2023-05-09T11:17:20.991Z,96738.00
2023-05-09T11:19:47.521Z,96730.94
2023-05-09T11:22:14.091Z,96737.72
2023-05-09T11:24:44.340Z,96736.00
2023-05-09T11:27:25.773Z,96726.88
2023-05-09T11:29:54.539Z,96717.84
2023-05-09T11:32:27.844Z,96718.44
2023-05-09T11:35:10.124Z,96719.00
2023-05-09T11:37:52.434Z,96711.88
2023-05-09T11:40:20.935Z,96706.84
2023-05-09T11:42:50.058Z,96711.97
2023-05-09T11:45:17.579Z,96709.59
2023-05-09T11:47:45.447Z,96703.91
2023-05-09T11:50:13.856Z,96694.59
2023-05-09T11:52:41.585Z,96701.72
2023-05-09T11:55:12.526Z,96690.94
2023-05-09T11:57:45.949Z,96684.53
2023-05-09T12:00:13.061Z,96681.25
2023-05-09T12:02:39.472Z,96673.91
2023-05-09T12:05:10.621Z,96668.72
2023-05-09T12:07:38.321Z,96661.84
2023-05-09T12:10:08.488Z,96659.63
2023-05-09T12:12:36.238Z,96656.63
2023-05-09T12:15:08.174Z,96650.28
2023-05-09T12:17:35.449Z,96647.38
2023-05-09T12:20:04.340Z,96644.22
2023-05-09T12:22:31.040Z,96631.16
2023-05-09T12:25:01.556Z,96632.66
2023-05-09T12:27:29.336Z,96623.25
2023-05-09T12:29:56.059Z,96625.75
2023-05-09T12:32:23.218Z,96618.44
2023-05-09T12:34:50.054Z,96611.78
2023-05-09T12:37:18.408Z,96608.22
2023-05-09T12:39:59.928Z,96600.31
2023-05-09T12:42:30.262Z,96600.28
2023-05-09T12:44:57.108Z,96594.13
2023-05-09T12:47:27.355Z,96590.16
2023-05-09T12:49:58.050Z,96597.25
2023-05-09T12:52:24.661Z,96586.03
2023-05-09T12:54:53.983Z,96589.88
2023-05-09T12:57:22.867Z,96589.09
2023-05-09T12:59:49.878Z,96585.03
2023-05-09T13:02:16.661Z,96584.53
2023-05-09T13:04:43.139Z,96578.53
2023-05-09T13:07:10.363Z,96583.84
2023-05-09T13:09:53.688Z,96588.88
2023-05-09T13:12:20.592Z,96587.91
2023-05-09T13:14:47.162Z,96582.91
2023-05-09T13:17:13.585Z,96578.84
2023-05-09T13:19:40.142Z,96568.41
2023-05-09T13:22:06.614Z,96556.72
2023-05-09T13:24:33.109Z,96549.91
2023-05-09T13:26:59.506Z,96539.84
2023-05-09T13:29:25.997Z,96543.69
2023-05-09T13:31:52.401Z,96546.03
2023-05-09T13:34:18.829Z,96543.09
2023-05-09T13:36:45.215Z,96541.19
2023-05-09T13:39:11.835Z,96529.41
2023-05-09T13:41:38.404Z,96518.97
2023-05-09T13:44:04.984Z,96524.19
2023-05-09T13:46:31.694Z,96519.34
2023-05-09T13:48:58.181Z,96517.50
2023-05-09T13:51:25.029Z,96506.44
2023-05-09T13:53:51.580Z,96502.19
2023-05-09T13:56:18.009Z,96498.88
2023-05-09T13:58:44.435Z,96502.97
2023-05-09T14:01:11.390Z,96496.31
2023-05-09T14:03:38.717Z,96487.16
2023-05-09T14:06:05.538Z,96488.63
2023-05-09T14:08:32.267Z,96483.84
2023-05-09T14:10:58.928Z,96478.53
2023-05-09T14:13:25.453Z,96469.50
2023-05-09T14:15:51.990Z,96465.41
2023-05-09T14:18:20.836Z,96467.19
2023-05-09T14:20:47.730Z,96450.03
2023-05-09T14:23:14.420Z,96458.66
2023-05-09T14:25:40.882Z,96454.13
2023-05-09T14:28:09.271Z,96450.38
2023-05-09T14:30:36.549Z,96443.53
2023-05-09T14:33:03.026Z,96442.41
2023-05-09T14:35:32.767Z,96438.25
2023-05-09T14:38:00.787Z,96432.22
2023-05-09T14:40:31.936Z,96435.13
2023-05-09T14:43:04.601Z,96432.66
2023-05-09T14:45:32.965Z,96423.34
2023-05-09T14:48:00.245Z,96415.13
2023-05-09T14:50:26.962Z,96422.06
2023-05-09T14:52:53.397Z,96414.34
2023-05-09T14:55:21.257Z,96411.97
2023-05-09T14:57:47.658Z,96415.25
2023-05-09T15:00:21.056Z,96411.13
2023-05-09T15:02:48.094Z,96413.34
2023-05-09T15:05:14.569Z,96409.66
2023-05-09T15:07:41.070Z,96411.69
2023-05-09T15:10:07.880Z,96400.66
2023-05-09T15:12:34.247Z,96395.66
2023-05-09T15:15:15.515Z,96395.81
2023-05-09T15:17:43.634Z,96396.56
2023-05-09T15:20:11.685Z,96396.88
2023-05-09T15:22:38.067Z,96390.78
2023-05-09T15:25:06.301Z,96391.41
2023-05-09T15:27:33.142Z,96388.25
2023-05-09T15:29:59.949Z,96381.59
2023-05-09T15:32:26.987Z,96378.53
2023-05-09T15:34:53.331Z,96375.94
2023-05-09T15:37:19.877Z,96380.75
2023-05-09T15:39:46.619Z,96374.94
2023-05-09T15:42:14.748Z,96372.44
2023-05-09T15:44:42.199Z,96367.41
2023-05-09T15:47:09.692Z,96368.06
2023-05-09T15:49:36.424Z,96359.72
2023-05-09T15:52:07.346Z,96361.03
2023-05-09T15:54:34.514Z,96363.06
2023-05-09T15:57:01.076Z,96363.06
2023-05-09T15:59:27.930Z,96359.28
2023-05-09T16:01:55.582Z,96351.69
2023-05-09T16:04:22.253Z,96355.47
2023-05-09T16:06:49.041Z,96350.75
2023-05-09T16:09:15.564Z,96351.06
2023-05-09T16:11:42.470Z,96347.22
2023-05-09T16:14:12.986Z,96336.66
2023-05-09T16:16:40.630Z,96333.66
2023-05-09T16:19:07.383Z,96338.22
2023-05-09T16:21:34.285Z,96330.78
2023-05-09T16:24:02.937Z,96335.88
2023-05-09T16:26:29.449Z,96338.03
2023-05-09T16:28:56.082Z,96340.31
2023-05-09T16:31:26.362Z,96339.25
2023-05-09T16:33:54.080Z,96339.75
2023-05-09T16:36:21.363Z,96335.66
2023-05-09T16:38:48.097Z,96340.72
2023-05-09T16:41:14.608Z,96331.00
2023-05-09T16:43:41.538Z,96331.06
2023-05-09T16:46:08.184Z,96322.00
2023-05-09T16:48:34.808Z,96331.28
2023-05-09T16:51:01.478Z,96321.66
2023-05-09T16:53:28.248Z,96320.13
2023-05-09T16:55:54.696Z,96316.47
2023-05-09T16:58:21.189Z,96332.72
2023-05-09T17:00:48.047Z,96328.22
2023-05-09T17:03:14.674Z,96317.34
2023-05-09T17:05:41.363Z,96313.59
2023-05-09T17:08:07.811Z,96328.50
2023-05-09T17:10:37.042Z,96333.19
2023-05-09T17:13:07.599Z,96347.25
2023-05-09T17:15:34.461Z,96366.94
2023-05-09T17:18:01.196Z,96376.28
2023-05-09T17:20:28.882Z,96378.63
2023-05-09T17:22:56.384Z,96374.00
2023-05-09T17:25:23.450Z,96367.78
2023-05-09T17:27:49.887Z,96368.19
2023-05-09T17:30:16.768Z,96367.78
2023-05-09T17:32:43.548Z,96360.81
2023-05-09T17:35:10.680Z,96357.63
2023-05-09T17:37:37.139Z,96359.41
2023-05-09T17:40:05.243Z,96369.06
2023-05-09T17:42:32.375Z,96354.84
2023-05-09T17:44:59.064Z,96361.28
2023-05-09T17:47:25.584Z,96353.94
2023-05-09T17:49:52.123Z,96358.81
2023-05-09T17:52:18.658Z,96356.88
2023-05-09T17:54:45.229Z,96357.16
2023-05-09T17:57:11.673Z,96355.34
2023-05-09T17:59:40.558Z,96356.69
2023-05-09T18:02:07.900Z,96352.16
2023-05-09T18:04:34.693Z,96357.47
2023-05-09T18:07:01.537Z,96359.06
2023-05-09T18:09:28.595Z,96351.72
2023-05-09T18:11:55.285Z,96361.78
2023-05-09T18:14:21.725Z,96362.00
2023-05-09T18:16:48.184Z,96362.81
2023-05-09T18:19:14.614Z,96361.91
2023-05-09T18:21:41.457Z,96366.38
2023-05-09T18:24:09.241Z,96366.06
2023-05-09T18:26:35.755Z,96366.06
2023-05-09T18:29:02.244Z,96372.16
2023-05-09T18:31:29.413Z,96377.50
2023-05-09T18:33:56.366Z,96372.88
2023-05-09T18:36:23.076Z,96385.66
2023-05-09T18:38:49.599Z,96387.34
2023-05-09T18:41:17.261Z,96396.63
2023-05-09T18:43:46.588Z,96394.34
2023-05-09T18:46:18.080Z,96397.84
2023-05-09T18:48:45.777Z,96400.31
2023-05-09T18:51:12.316Z,96397.59
2023-05-09T18:53:38.804Z,96401.81
2023-05-09T18:56:05.314Z,96401.25
2023-05-09T18:58:32.431Z,96403.84
2023-05-09T19:00:59.184Z,96401.75
2023-05-09T19:03:27.117Z,96408.22
2023-05-09T19:05:54.013Z,96408.03
2023-05-09T19:08:20.621Z,96401.81
2023-05-09T19:10:47.409Z,96410.22
2023-05-09T19:13:16.058Z,96408.16
2023-05-09T19:15:42.996Z,96410.28
2023-05-09T19:18:09.593Z,96405.53
2023-05-09T19:20:36.910Z,96409.28
2023-05-09T19:23:03.464Z,96406.84
2023-05-09T19:25:33.591Z,96400.75
2023-05-09T19:28:00.069Z,96414.00
2023-05-09T19:30:26.573Z,96416.19
2023-05-09T19:32:53.108Z,96421.50
2023-05-09T19:35:20.330Z,96406.06
2023-05-09T19:37:46.808Z,96409.22
2023-05-09T19:40:13.396Z,96423.56
2023-05-09T19:42:41.811Z,96428.34
2023-05-09T19:45:09.066Z,96425.16
2023-05-09T19:47:35.696Z,96428.81
2023-05-09T19:50:02.313Z,96434.44
2023-05-09T19:52:29.642Z,96433.91
2023-05-09T19:54:56.111Z,96426.22
2023-05-09T19:57:22.809Z,96433.72
2023-05-09T19:59:49.238Z,96433.13
2023-05-09T20:02:15.722Z,96423.28
2023-05-09T20:04:46.518Z,96427.28
2023-05-09T20:07:13.133Z,96435.25
2023-05-09T20:09:39.568Z,96428.38
2023-05-09T20:12:06.393Z,96425.09
2023-05-09T20:14:32.854Z,96421.44
2023-05-09T20:16:59.281Z,96429.41
2023-05-09T20:19:25.722Z,96422.97
2023-05-09T20:21:52.136Z,96420.81
2023-05-09T20:24:19.354Z,96410.69
2023-05-09T20:26:45.897Z,96416.00
2023-05-09T20:29:12.325Z,96414.66
2023-05-09T20:31:38.827Z,96414.81
2023-05-09T20:34:05.531Z,96411.09
2023-05-09T20:36:32.045Z,96413.81
2023-05-09T20:38:58.501Z,96414.94
2023-05-09T20:41:25.509Z,96405.31
2023-05-09T20:43:52.003Z,96406.34
2023-05-09T20:46:18.408Z,96405.56
2023-05-09T20:48:45.170Z,96410.38
2023-05-09T20:51:11.688Z,96399.22
2023-05-09T20:53:38.378Z,96401.00
2023-05-09T20:56:05.098Z,96403.19
2023-05-09T20:58:33.473Z,96403.69
2023-05-09T21:01:00.434Z,96404.78
2023-05-09T21:03:27.298Z,96403.41
2023-05-09T21:05:54.400Z,96406.34
2023-05-09T21:08:20.826Z,96401.59
2023-05-09T21:10:47.278Z,96400.00
2023-05-09T21:13:13.888Z,96401.59
2023-05-09T21:15:40.352Z,96400.63
2023-05-09T21:18:06.891Z,96393.47
2023-05-09T21:20:33.504Z,96399.53
2023-05-09T21:23:00.052Z,96402.50
2023-05-09T21:25:26.493Z,96390.63
2023-05-09T21:27:52.921Z,96391.63
2023-05-09T21:30:19.458Z,96390.06
2023-05-09T21:32:46.000Z,96394.13
2023-05-09T21:35:13.632Z,96399.16
2023-05-09T21:37:40.099Z,96393.97
2023-05-09T21:40:07.362Z,96394.53
2023-05-09T21:42:35.819Z,96389.22
2023-05-09T21:45:02.234Z,96387.06
2023-05-09T21:47:28.918Z,96394.59
2023-05-09T21:49:56.206Z,96390.34
2023-05-09T21:52:23.581Z,96386.63
2023-05-09T21:54:50.066Z,96386.84
2023-05-09T21:57:16.568Z,96384.13
2023-05-09T21:59:43.128Z,96386.50
2023-05-09T22:02:09.669Z,96383.91
2023-05-09T22:04:36.143Z,96379.66
2023-05-09T22:07:02.651Z,96377.00
2023-05-09T22:09:29.789Z,96387.41
2023-05-09T22:11:56.208Z,96386.63
2023-05-09T22:14:22.697Z,96383.44
2023-05-09T22:16:49.204Z,96383.91
2023-05-09T22:19:15.998Z,96380.47
2023-05-09T22:21:42.418Z,96380.41
2023-05-09T22:24:08.927Z,96378.50
2023-05-09T22:26:35.376Z,96385.38
2023-05-09T22:29:01.797Z,96386.44
2023-05-09T22:31:31.545Z,96396.13
2023-05-09T22:33:57.972Z,96388.81
2023-05-09T22:36:25.055Z,96385.13
2023-05-09T22:38:51.576Z,96385.19
2023-05-09T22:41:18.048Z,96400.09
2023-05-09T22:43:45.316Z,96393.78
2023-05-09T22:46:11.764Z,96393.78
2023-05-09T22:48:38.231Z,96390.28
2023-05-09T22:51:04.909Z,96390.59
2023-05-09T22:53:32.682Z,96394.84
2023-05-09T22:55:59.323Z,96390.00
2023-05-09T22:58:26.434Z,96397.50
2023-05-09T23:00:52.881Z,96393.72
2023-05-09T23:03:19.585Z,96392.09
2023-05-09T23:05:46.095Z,96398.44
2023-05-09T23:08:12.635Z,96397.88
2023-05-09T23:10:39.029Z,96400.75
2023-05-09T23:13:05.867Z,96395.75
2023-05-09T23:15:32.490Z,96404.88
2023-05-09T23:17:59.093Z,96401.47
2023-05-09T23:20:26.181Z,96403.97
2023-05-09T23:22:52.771Z,96401.38
2023-05-09T23:25:19.220Z,96398.22
2023-05-09T23:27:46.854Z,96405.16
2023-05-09T23:30:13.579Z,96397.19
2023-05-09T23:32:40.095Z,96403.50
2023-05-09T23:35:07.261Z,96402.50
2023-05-09T23:37:34.036Z,96402.00
2023-05-09T23:40:00.917Z,96394.56
2023-05-09T23:42:27.392Z,96394.16
2023-05-09T23:44:54.065Z,96400.75
2023-05-09T23:47:20.564Z,96401.28
2023-05-09T23:49:47.113Z,96399.69
2023-05-09T23:52:13.612Z,96399.44
2023-05-09T23:54:40.422Z,96391.53
2023-05-09T23:57:06.839Z,96390.94
2023-05-09T23:59:33.418Z,96395.06
